Hier das METAR für die 16 wichtigsten Deutschen Flughäfen.
(dauert ein wenig.... ich muss laden.....)

ODER
METAR nach ICAO Code suchen

Berlin - Schönefeld

EDDB

METAR
EDDB 220050Z 30011KT 9999 FEW019 20/17 Q1009 BECMG BKN011
EDDBMETAR lang
Berlin-Schoenefeld, Germany (EDDB) 52-23N 013-31E 50M
Jun 21, 2021 - 08:50 PM EDT / 2021.06.22 0050 UTC
Wind: from the WNW (300 degrees) at 13 MPH (11 KT):0
Visibility: greater than 7 mile(s):0
Sky conditions: mostly clear
Temperature: 68 F (20 C)
Dew Point: 62 F (17 C)
Relative Humidity: 82%
Pressure (altimeter): 29.80 in. Hg (1009 hPa)
ob: EDDB 220050Z 30011KT 9999 FEW019 20/17 Q1009 BECMG BKN011
cycle: 1

Dresden

EDDC

METAR
EDDC 220050Z 32008KT 290V350 CAVOK 19/15 Q1010
EDDCMETAR lang
Dresden-Klotzsche, Germany (EDDC) 51-08N 013-45E 232M
Jun 21, 2021 - 08:50 PM EDT / 2021.06.22 0050 UTC
Wind: from the NW (320 degrees) at 9 MPH (8 KT) (direction variable):0
Visibility: greater than 7 mile(s):0
Temperature: 66 F (19 C)
Dew Point: 59 F (15 C)
Relative Humidity: 77%
Pressure (altimeter): 29.83 in. Hg (1010 hPa)
ob: EDDC 220050Z 32008KT 290V350 CAVOK 19/15 Q1010
cycle: 1

Erfurt

EDDE

METAR
EDDE 220050Z 31005KT 280V340 9999 BKN016 14/12 Q1012
EDDEMETAR lang
Erfurt-Bindersleben, Germany (EDDE) 50-59N 010-58E 322M
Jun 21, 2021 - 08:50 PM EDT / 2021.06.22 0050 UTC
Wind: from the NW (310 degrees) at 6 MPH (5 KT) (direction variable):0
Visibility: greater than 7 mile(s):0
Sky conditions: mostly cloudy
Temperature: 57 F (14 C)
Dew Point: 53 F (12 C)
Relative Humidity: 87%
Pressure (altimeter): 29.88 in. Hg (1012 hPa)
ob: EDDE 220050Z 31005KT 280V340 9999 BKN016 14/12 Q1012
cycle: 1

Frankfurt a. Main

EDDF

METAR
EDDF 220050Z 02010KT 9999 -RA FEW040 16/13 Q1011 NOSIG
EDDFMETAR lang
Frankfurt / M-Flughafen, Germany (EDDF) 50-03N 008-36E 113M
Jun 21, 2021 - 08:50 PM EDT / 2021.06.22 0050 UTC
Wind: from the NNE (020 degrees) at 12 MPH (10 KT):0
Visibility: greater than 7 mile(s):0
Sky conditions: mostly clear
Weather: light rain
Temperature: 60 F (16 C)
Dew Point: 55 F (13 C)
Relative Humidity: 82%
Pressure (altimeter): 29.85 in. Hg (1011 hPa)
ob: EDDF 220050Z 02010KT 9999 -RA FEW040 16/13 Q1011 NOSIG
cycle: 1

Münster Osnabrück

EDDG

METAR
EDDG 220050Z 35003KT 320V030 9999 BKN032 12/11 Q1014 NOSIG
EDDGMETAR lang
Muenster / Osnabrueck, Germany (EDDG) 52-08N 007-42E 53M
Jun 21, 2021 - 08:50 PM EDT / 2021.06.22 0050 UTC
Wind: from the N (350 degrees) at 3 MPH (3 KT) (direction variable):0
Visibility: greater than 7 mile(s):0
Sky conditions: mostly cloudy
Temperature: 53 F (12 C)
Dew Point: 51 F (11 C)
Relative Humidity: 93%
Pressure (altimeter): 29.94 in. Hg (1014 hPa)
ob: EDDG 220050Z 35003KT 320V030 9999 BKN032 12/11 Q1014 NOSIG
cycle: 1

Hamburg

EDDH

METAR
EDDH 220050Z 29004KT 9999 BKN034 12/11 Q1013 NOSIG
EDDHMETAR lang
Hamburg-Fuhlsbuettel, Germany (EDDH) 53-38N 010-00E 15M
Jun 21, 2021 - 08:50 PM EDT / 2021.06.22 0050 UTC
Wind: from the WNW (290 degrees) at 5 MPH (4 KT):0
Visibility: greater than 7 mile(s):0
Sky conditions: mostly cloudy
Temperature: 53 F (12 C)
Dew Point: 51 F (11 C)
Relative Humidity: 93%
Pressure (altimeter): 29.91 in. Hg (1013 hPa)
ob: EDDH 220050Z 29004KT 9999 BKN034 12/11 Q1013 NOSIG
cycle: 1

Köln - Bonn

EDDK

METAR
EDDK 220050Z 04005KT 010V070 9999 BKN021 15/10 Q1013 NOSIG
EDDKMETAR lang
Koeln / Bonn, Germany (EDDK) 50-52N 007-10E 100M
Jun 21, 2021 - 08:50 PM EDT / 2021.06.22 0050 UTC
Wind: from the NE (040 degrees) at 6 MPH (5 KT) (direction variable):0
Visibility: greater than 7 mile(s):0
Sky conditions: mostly cloudy
Temperature: 59 F (15 C)
Dew Point: 50 F (10 C)
Relative Humidity: 72%
Pressure (altimeter): 29.91 in. Hg (1013 hPa)
ob: EDDK 220050Z 04005KT 010V070 9999 BKN021 15/10 Q1013 NOSIG
cycle: 1

Düsseldorf

EDDL

METAR
EDDL 220050Z 02009KT 9999 BKN019 14/11 Q1014 NOSIG
EDDLMETAR lang
Duesseldorf, Germany (EDDL) 51-18N 006-46E 41M
Jun 21, 2021 - 08:50 PM EDT / 2021.06.22 0050 UTC
Wind: from the NNE (020 degrees) at 10 MPH (9 KT):0
Visibility: greater than 7 mile(s):0
Sky conditions: mostly cloudy
Temperature: 57 F (14 C)
Dew Point: 51 F (11 C)
Relative Humidity: 82%
Pressure (altimeter): 29.94 in. Hg (1014 hPa)
ob: EDDL 220050Z 02009KT 9999 BKN019 14/11 Q1014 NOSIG
cycle: 1

München

EDDM

METAR
EDDM 220050Z 20008KT CAVOK 16/15 Q1012 NOSIG
EDDMMETAR lang
Munchen, Germany (EDDM) 48-21N 011-47E
Jun 21, 2021 - 08:50 PM EDT / 2021.06.22 0050 UTC
Wind: from the SSW (200 degrees) at 9 MPH (8 KT):0
Visibility: greater than 7 mile(s):0
Temperature: 60 F (16 C)
Dew Point: 59 F (15 C)
Relative Humidity: 93%
Pressure (altimeter): 29.88 in. Hg (1012 hPa)
ob: EDDM 220050Z 20008KT CAVOK 16/15 Q1012 NOSIG
cycle: 1

Nürnberg

EDDN

METAR
EDDN 220050Z 30005KT CAVOK 18/17 Q1011
EDDNMETAR lang
Nuernberg, Germany (EDDN) 49-30N 011-03E 318M
Jun 21, 2021 - 08:50 PM EDT / 2021.06.22 0050 UTC
Wind: from the WNW (300 degrees) at 6 MPH (5 KT):0
Visibility: greater than 7 mile(s):0
Temperature: 64 F (18 C)
Dew Point: 62 F (17 C)
Relative Humidity: 93%
Pressure (altimeter): 29.85 in. Hg (1011 hPa)
ob: EDDN 220050Z 30005KT CAVOK 18/17 Q1011
cycle: 1

Leipzig - Halle

EDDP

METAR
EDDP 220050Z 29010KT 9999 BKN010 15/13 Q1012 TEMPO BKN008
EDDPMETAR lang
Leipzig-Schkeuditz, Germany (EDDP) 51-25N 012-14E 149M
Jun 21, 2021 - 08:50 PM EDT / 2021.06.22 0050 UTC
Wind: from the WNW (290 degrees) at 12 MPH (10 KT):0
Visibility: greater than 7 mile(s):0
Sky conditions: mostly cloudy
Temperature: 59 F (15 C)
Dew Point: 55 F (13 C)
Relative Humidity: 87%
Pressure (altimeter): 29.88 in. Hg (1012 hPa)
ob: EDDP 220050Z 29010KT 9999 BKN010 15/13 Q1012 TEMPO BKN008
cycle: 1

Saarbrücken

EDDR

METAR
EDDR 220050Z 07008KT 030V090 9999 SCT008 15/14 Q1011
EDDRMETAR lang
Saarbruecken / Ensheim, Germany (EDDR) 49-13N 007-07E 320M
Jun 21, 2021 - 08:50 PM EDT / 2021.06.22 0050 UTC
Wind: from the ENE (070 degrees) at 9 MPH (8 KT) (direction variable):0
Visibility: greater than 7 mile(s):0
Sky conditions: partly cloudy
Temperature: 59 F (15 C)
Dew Point: 57 F (14 C)
Relative Humidity: 93%
Pressure (altimeter): 29.85 in. Hg (1011 hPa)
ob: EDDR 220050Z 07008KT 030V090 9999 SCT008 15/14 Q1011
cycle: 1

Stuttgart

EDDS

METAR
EDDS 220050Z VRB01KT CAVOK 17/16 Q1011
EDDSMETAR lang
Stuttgart-Echterdingen, Germany (EDDS) 48-41N 009-13E 391M
Jun 21, 2021 - 08:50 PM EDT / 2021.06.22 0050 UTC
Wind: Variable at 1 MPH (1 KT):0
Visibility: greater than 7 mile(s):0
Temperature: 62 F (17 C)
Dew Point: 60 F (16 C)
Relative Humidity: 93%
Pressure (altimeter): 29.85 in. Hg (1011 hPa)
ob: EDDS 220050Z VRB01KT CAVOK 17/16 Q1011
cycle: 1

Berlin - Tegel

EDDT

METAR
EDDT 090650Z 09006KT 050V120 3000 BR OVC003 06/05 Q1027
EDDTMETAR lang
Berlin-Tegel, Germany (EDDT) 52-34N 013-19E 37M
Nov 09, 2020 - 01:50 AM EST / 2020.11.09 0650 UTC
Wind: from the E (090 degrees) at 7 MPH (6 KT) (direction variable):0
Visibility: 1 mile(s):0
Sky conditions: overcast
Weather: mist
Temperature: 42 F (6 C)
Dew Point: 41 F (5 C)
Relative Humidity: 93%
Pressure (altimeter): 30.33 in. Hg (1027 hPa)
ob: EDDT 090650Z 09006KT 050V120 3000 BR OVC003 06/05 Q1027
cycle: 7

Hannover

EDDV

METAR
EDDV 220050Z 33007KT 300V360 9999 -DZ SCT006 BKN022 12/12 Q1013
EDDVMETAR lang
Hannover, Germany (EDDV) 52-28N 009-41E 59M
Jun 21, 2021 - 08:50 PM EDT / 2021.06.22 0050 UTC
Wind: from the NNW (330 degrees) at 8 MPH (7 KT) (direction variable):0
Visibility: greater than 7 mile(s):0
Sky conditions: mostly cloudy
Weather: light drizzle
Temperature: 53 F (12 C)
Dew Point: 53 F (12 C)
Relative Humidity: 100%
Pressure (altimeter): 29.91 in. Hg (1013 hPa)
ob: EDDV 220050Z 33007KT 300V360 9999 -DZ SCT006 BKN022 12/12 Q1013
cycle: 1

Bremen

EDDW

METAR
EDDW 220050Z 32007KT 9999 FEW016 BKN030 13/11 Q1014
EDDWMETAR lang
Bremen, Germany (EDDW) 53-03N 008-48E 5M
Jun 21, 2021 - 08:50 PM EDT / 2021.06.22 0050 UTC
Wind: from the NW (320 degrees) at 8 MPH (7 KT):0
Visibility: greater than 7 mile(s):0
Sky conditions: mostly cloudy
Temperature: 55 F (13 C)
Dew Point: 51 F (11 C)
Relative Humidity: 87%
Pressure (altimeter): 29.94 in. Hg (1014 hPa)
ob: EDDW 220050Z 32007KT 9999 FEW016 BKN030 13/11 Q1014
cycle: 1